Time;durP1;ratioP1;P1;durP2;ratioP2;P2;SDS_P1;SDS_P2;PMS_P1;PMS_P2;Temp;Humidity;BMP_temperature;BMP_pressure;BME280_temperature;BME280_humidity;BME280_pressure;Samples;Min_cycle;Max_cycle;Signal;HPM_P1;HPM_P2
2023/09/24 00:00:15;;;;;;;0.00;0.00;;;;;;;;;;1735661;28;20238;-81
2023/09/24 00:01:06;;;;;;;0.00;0.00;;;;;;;;;;1740654;28;20202;-81
2023/09/24 00:01:58;;;;;;;0.00;0.00;;;;;;;;;;1735074;28;20201;-78
2023/09/24 00:02:50;;;;;;;0.00;0.00;;;;;;;;;;1736858;28;20210;-79
2023/09/24 00:03:42;;;;;;;0.00;0.00;;;;;;;;;;1734743;28;20634;-79
2023/09/24 00:04:33;;;;;;;0.00;0.00;;;;;;;;;;1736549;28;20215;-79
2023/09/24 00:05:25;;;;;;;0.00;0.00;;;;;;;;;;1735758;28;20635;-79
2023/09/24 00:06:16;;;;;;;0.00;0.00;;;;;;;;;;1739044;28;20234;-80
2023/09/24 00:07:08;;;;;;;0.00;0.00;;;;;;;;;;1735621;28;20203;-80
2023/09/24 00:08:00;;;;;;;0.00;0.00;;;;;;;;;;1735753;28;20537;-80
2023/09/24 00:08:51;;;;;;;0.00;0.00;;;;;;;;;;1734926;28;20234;-80
2023/09/24 00:09:43;;;;;;;0.00;0.00;;;;;;;;;;1736404;28;20196;-80
2023/09/24 00:10:34;;;;;;;0.00;0.00;;;;;;;;;;1734208;28;20227;-81
2023/09/24 00:11:25;;;;;;;0.00;0.00;;;;;;;;;;1738550;28;20285;-80
2023/09/24 00:12:18;;;;;;;0.00;0.00;;;;;;;;;;1736609;28;20215;-81
2023/09/24 00:13:09;;;;;;;0.00;0.00;;;;;;;;;;1736848;28;20652;-81
2023/09/24 00:14:01;;;;;;;0.00;0.00;;;;;;;;;;1736703;28;20266;-81
2023/09/24 00:14:53;;;;;;;0.00;0.00;;;;;;;;;;1737671;28;20263;-81
2023/09/24 00:15:44;;;;;;;0.00;0.00;;;;;;;;;;1736173;28;20573;-81
2023/09/24 00:16:36;;;;;;;0.00;0.00;;;;;;;;;;1738792;28;20212;-81
2023/09/24 00:17:27;;;;;;;0.00;0.00;;;;;;;;;;1736566;28;20208;-81
2023/09/24 00:18:20;;;;;;;0.00;0.00;;;;;;;;;;1735058;28;20307;-81
2023/09/24 00:19:11;;;;;;;0.00;0.00;;;;;;;;;;1732391;28;20211;-81
2023/09/24 00:20:07;;;;;;;0.00;0.00;;;;;;;;;;1733186;28;20239;-81
2023/09/24 00:20:58;;;;;;;0.00;0.00;;;;;;;;;;1736606;28;20248;-80
2023/09/24 00:21:50;;;;;;;0.00;0.00;;;;;;;;;;1736020;28;20259;-80
2023/09/24 00:22:41;;;;;;;0.00;0.00;;;;;;;;;;1734358;28;20200;-80
2023/09/24 00:23:33;;;;;;;0.00;0.00;;;;;;;;;;1739695;28;20603;-80
2023/09/24 00:24:24;;;;;;;0.00;0.00;;;;;;;;;;1734382;28;20271;-80
2023/09/24 00:25:15;;;;;;;0.00;0.00;;;;;;;;;;1734017;28;20238;-81
2023/09/24 00:26:07;;;;;;;0.00;0.00;;;;;;;;;;1736762;28;20537;-80
2023/09/24 00:26:58;;;;;;;0.00;0.00;;;;;;;;;;1735256;28;20590;-80
2023/09/24 00:27:50;;;;;;;0.00;0.00;;;;;;;;;;1735106;28;20219;-81
2023/09/24 00:28:42;;;;;;;0.00;0.00;;;;;;;;;;1735423;28;20262;-80
2023/09/24 00:29:35;;;;;;;0.00;0.00;;;;;;;;;;1735085;28;20218;-80
2023/09/24 00:30:27;;;;;;;0.00;0.00;;;;;;;;;;1734267;28;20228;-81
2023/09/24 00:31:18;;;;;;;0.00;0.00;;;;;;;;;;1734613;28;20755;-81
2023/09/24 00:32:10;;;;;;;0.00;0.00;;;;;;;;;;1735840;28;20259;-81
2023/09/24 00:33:03;;;;;;;0.00;0.00;;;;;;;;;;1735895;28;20238;-81
2023/09/24 00:33:54;;;;;;;0.00;0.00;;;;;;;;;;1735593;28;20541;-81
2023/09/24 00:34:46;;;;;;;0.00;0.00;;;;;;;;;;1735618;28;20200;-81
2023/09/24 00:35:37;;;;;;;0.00;0.00;;;;;;;;;;1735003;28;20269;-80
2023/09/24 00:36:28;;;;;;;0.00;0.00;;;;;;;;;;1736819;28;20270;-81
2023/09/24 00:37:21;;;;;;;0.00;0.00;;;;;;;;;;1736119;28;20294;-80
2023/09/24 00:38:12;;;;;;;0.00;0.00;;;;;;;;;;1735567;28;20200;-80
2023/09/24 00:39:05;;;;;;;0.00;0.00;;;;;;;;;;1736797;28;20242;-81
2023/09/24 00:39:56;;;;;;;0.00;0.00;;;;;;;;;;1736029;28;20202;-80
2023/09/24 00:40:47;;;;;;;0.00;0.00;;;;;;;;;;1734021;28;20219;-81
2023/09/24 00:41:39;;;;;;;0.00;0.00;;;;;;;;;;1735127;28;20283;-81
2023/09/24 00:42:31;;;;;;;0.00;0.00;;;;;;;;;;1735286;28;20216;-80
2023/09/24 00:43:27;;;;;;;0.00;0.00;;;;;;;;;;1735533;28;20746;-80
2023/09/24 00:44:19;;;;;;;0.00;0.00;;;;;;;;;;1735221;28;20206;-81
2023/09/24 00:45:11;;;;;;;0.00;0.00;;;;;;;;;;1735819;28;20211;-81
2023/09/24 00:46:04;;;;;;;0.00;0.00;;;;;;;;;;1735183;28;20260;-81
2023/09/24 00:46:58;;;;;;;0.00;0.00;;;;;;;;;;1735714;28;20204;-81
2023/09/24 00:47:49;;;;;;;0.00;0.00;;;;;;;;;;1735457;28;20196;-81
2023/09/24 00:48:40;;;;;;;0.00;0.00;;;;;;;;;;1735864;28;20214;-81
2023/09/24 00:49:33;;;;;;;0.00;0.00;;;;;;;;;;1735376;28;20203;-81
2023/09/24 00:50:24;;;;;;;0.00;0.00;;;;;;;;;;1735160;28;20568;-81
2023/09/24 00:51:16;;;;;;;0.00;0.00;;;;;;;;;;1735372;28;20203;-81
2023/09/24 00:52:09;;;;;;;0.00;0.00;;;;;;;;;;1735975;28;20665;-81
2023/09/24 00:53:01;;;;;;;0.00;0.00;;;;;;;;;;1735585;28;20369;-81
2023/09/24 00:53:53;;;;;;;0.00;0.00;;;;;;;;;;1735432;28;20217;-80
2023/09/24 00:54:45;;;;;;;0.00;0.00;;;;;;;;;;1734495;28;20196;-81
2023/09/24 00:55:36;;;;;;;0.00;0.00;;;;;;;;;;1734468;28;20239;-81
2023/09/24 00:56:28;;;;;;;0.00;0.00;;;;;;;;;;1737679;28;20205;-81
2023/09/24 00:57:21;;;;;;;0.00;0.00;;;;;;;;;;1735842;28;20283;-81
2023/09/24 00:58:12;;;;;;;0.00;0.00;;;;;;;;;;1734778;28;20224;-81
2023/09/24 00:59:06;;;;;;;0.00;0.00;;;;;;;;;;1735411;28;20227;-81
2023/09/24 00:59:58;;;;;;;0.00;0.00;;;;;;;;;;1735453;28;20195;-81
2023/09/24 01:00:50;;;;;;;0.00;0.00;;;;;;;;;;1734263;28;20262;-81
2023/09/24 01:01:44;;;;;;;0.00;0.00;;;;;;;;;;1735472;28;20274;-81
2023/09/24 01:02:36;;;;;;;0.00;0.00;;;;;;;;;;1735977;28;20196;-80
2023/09/24 01:03:27;;;;;;;0.00;0.00;;;;;;;;;;1735866;28;20249;-81
2023/09/24 01:04:20;;;;;;;0.00;0.00;;;;;;;;;;1735569;28;20199;-81
2023/09/24 01:05:11;;;;;;;0.00;0.00;;;;;;;;;;1735804;28;20643;-81
2023/09/24 01:06:02;;;;;;;0.00;0.00;;;;;;;;;;1734656;28;20281;-81
2023/09/24 01:06:56;;;;;;;0.00;0.00;;;;;;;;;;1735905;28;20288;-81
2023/09/24 01:07:47;;;;;;;0.00;0.00;;;;;;;;;;1735484;28;20257;-81
2023/09/24 01:08:39;;;;;;;0.00;0.00;;;;;;;;;;1735572;28;20261;-82
2023/09/24 01:09:30;;;;;;;0.00;0.00;;;;;;;;;;1735296;28;20208;-81
2023/09/24 01:10:23;;;;;;;0.00;0.00;;;;;;;;;;1734554;28;20183;-81
2023/09/24 01:11:15;;;;;;;0.00;0.00;;;;;;;;;;1735245;28;20281;-81
2023/09/24 01:12:07;;;;;;;0.00;0.00;;;;;;;;;;1735584;28;20223;-82
2023/09/24 01:12:59;;;;;;;0.00;0.00;;;;;;;;;;1735039;28;20210;-80
2023/09/24 01:13:51;;;;;;;0.00;0.00;;;;;;;;;;1735443;28;20204;-80
2023/09/24 01:14:42;;;;;;;0.00;0.00;;;;;;;;;;1736496;28;20203;-80
2023/09/24 01:15:34;;;;;;;0.00;0.00;;;;;;;;;;1733670;28;20259;-80
2023/09/24 01:16:26;;;;;;;0.00;0.00;;;;;;;;;;1735139;28;20195;-81
2023/09/24 01:17:20;;;;;;;0.00;0.00;;;;;;;;;;1734087;28;20215;-80
2023/09/24 01:18:12;;;;;;;0.00;0.00;;;;;;;;;;1734957;28;20342;-80
2023/09/24 01:19:05;;;;;;;0.00;0.00;;;;;;;;;;1734718;28;20629;-80
2023/09/24 01:19:56;;;;;;;0.00;0.00;;;;;;;;;;1735114;28;20645;-80
2023/09/24 01:20:47;;;;;;;0.00;0.00;;;;;;;;;;1733739;28;20673;-81
2023/09/24 01:21:40;;;;;;;0.00;0.00;;;;;;;;;;1735293;28;20859;-81
2023/09/24 01:22:32;;;;;;;0.00;0.00;;;;;;;;;;1734718;28;20918;-82
2023/09/24 01:23:23;;;;;;;0.00;0.00;;;;;;;;;;1735273;28;20214;-81
2023/09/24 01:24:15;;;;;;;0.00;0.00;;;;;;;;;;1735034;28;20212;-80
2023/09/24 01:25:07;;;;;;;0.00;0.00;;;;;;;;;;1735676;28;20215;-81
2023/09/24 01:25:58;;;;;;;0.00;0.00;;;;;;;;;;1733856;28;20265;-81
2023/09/24 01:26:50;;;;;;;0.00;0.00;;;;;;;;;;1737165;28;20202;-81
2023/09/24 01:27:41;;;;;;;0.00;0.00;;;;;;;;;;1735060;28;20228;-81
2023/09/24 01:28:32;;;;;;;0.00;0.00;;;;;;;;;;1736554;28;20222;-81
2023/09/24 01:29:24;;;;;;;0.00;0.00;;;;;;;;;;1737538;28;20204;-81
2023/09/24 01:30:16;;;;;;;0.00;0.00;;;;;;;;;;1741593;28;20357;-80
2023/09/24 01:31:08;;;;;;;0.00;0.00;;;;;;;;;;1746264;28;20202;-80
2023/09/24 01:31:59;;;;;;;0.00;0.00;;;;;;;;;;1743025;28;20268;-80
2023/09/24 01:32:50;;;;;;;0.00;0.00;;;;;;;;;;1741954;28;20210;-80
2023/09/24 01:33:43;;;;;;;0.00;0.00;;;;;;;;;;1742287;28;20959;-80
2023/09/24 01:34:34;;;;;;;0.00;0.00;;;;;;;;;;1742553;28;20210;-80
2023/09/24 01:35:26;;;;;;;0.00;0.00;;;;;;;;;;1746824;28;20329;-80
2023/09/24 01:36:19;;;;;;;0.00;0.00;;;;;;;;;;1743003;28;20787;-81
2023/09/24 01:37:10;;;;;;;0.00;0.00;;;;;;;;;;1741789;28;20203;-81
2023/09/24 01:38:04;;;;;;;0.00;0.00;;;;;;;;;;1743754;28;20195;-81
2023/09/24 01:38:56;;;;;;;0.00;0.00;;;;;;;;;;1742097;28;20586;-81
2023/09/24 01:39:47;;;;;;;0.00;0.00;;;;;;;;;;1744478;28;20494;-81
2023/09/24 01:40:39;;;;;;;0.00;0.00;;;;;;;;;;1740645;28;20296;-81
2023/09/24 01:41:30;;;;;;;0.00;0.00;;;;;;;;;;1747669;28;20206;-81
2023/09/24 01:42:21;;;;;;;0.00;0.00;;;;;;;;;;1742052;28;20199;-81
2023/09/24 01:43:14;;;;;;;0.00;0.00;;;;;;;;;;1743306;28;20199;-81
2023/09/24 01:44:06;;;;;;;0.00;0.00;;;;;;;;;;1742767;28;20203;-81
2023/09/24 01:44:57;;;;;;;0.00;0.00;;;;;;;;;;1743660;28;20195;-81
2023/09/24 01:45:49;;;;;;;0.00;0.00;;;;;;;;;;1741570;28;20664;-81
2023/09/24 01:46:40;;;;;;;0.00;0.00;;;;;;;;;;1744938;28;20844;-81
2023/09/24 01:47:32;;;;;;;0.00;0.00;;;;;;;;;;1743040;28;20584;-80
2023/09/24 01:48:24;;;;;;;0.00;0.00;;;;;;;;;;1746065;28;20194;-81
2023/09/24 01:49:17;;;;;;;0.00;0.00;;;;;;;;;;1743969;28;20244;-81
2023/09/24 01:50:08;;;;;;;0.00;0.00;;;;;;;;;;1742323;28;20209;-81
2023/09/24 01:51:00;;;;;;;0.00;0.00;;;;;;;;;;1743272;28;20679;-81
2023/09/24 01:51:51;;;;;;;0.00;0.00;;;;;;;;;;1744724;28;20246;-81
2023/09/24 01:52:42;;;;;;;0.00;0.00;;;;;;;;;;1743993;28;20222;-82
2023/09/24 01:53:38;;;;;;;0.00;0.00;;;;;;;;;;1742266;28;20580;-81
2023/09/24 01:54:30;;;;;;;0.00;0.00;;;;;;;;;;1741821;28;20199;-81
2023/09/24 01:55:21;;;;;;;0.00;0.00;;;;;;;;;;1742538;28;20217;-82
2023/09/24 01:56:14;;;;;;;0.00;0.00;;;;;;;;;;1747940;28;20194;-81
2023/09/24 01:57:05;;;;;;;0.00;0.00;;;;;;;;;;1746026;28;20203;-81
2023/09/24 01:57:57;;;;;;;0.00;0.00;;;;;;;;;;1745445;28;20218;-82
2023/09/24 01:58:51;;;;;;;0.00;0.00;;;;;;;;;;1745884;28;20233;-81
2023/09/24 01:59:42;;;;;;;0.00;0.00;;;;;;;;;;1746656;28;20194;-81
2023/09/24 02:00:33;;;;;;;0.00;0.00;;;;;;;;;;1740346;28;20234;-80
2023/09/24 02:01:25;;;;;;;0.00;0.00;;;;;;;;;;1744556;28;20297;-80
2023/09/24 02:02:16;;;;;;;0.00;0.00;;;;;;;;;;1742096;28;20281;-80
2023/09/24 02:03:11;;;;;;;0.00;0.00;;;;;;;;;;1745371;28;20215;-81
2023/09/24 02:04:03;;;;;;;0.00;0.00;;;;;;;;;;1740703;28;20227;-81
2023/09/24 02:04:55;;;;;;;0.00;0.00;;;;;;;;;;1744782;28;20215;-81
2023/09/24 02:05:46;;;;;;;0.00;0.00;;;;;;;;;;1741510;28;20318;-81
2023/09/24 02:06:39;;;;;;;0.00;0.00;;;;;;;;;;1745094;28;20290;-81
2023/09/24 02:07:31;;;;;;;0.00;0.00;;;;;;;;;;1741709;28;20211;-81
2023/09/24 02:08:23;;;;;;;0.00;0.00;;;;;;;;;;1746347;28;20200;-81
2023/09/24 02:09:16;;;;;;;0.00;0.00;;;;;;;;;;1743800;28;20237;-81
2023/09/24 02:10:07;;;;;;;0.00;0.00;;;;;;;;;;1744063;28;20210;-81
2023/09/24 02:11:00;;;;;;;0.00;0.00;;;;;;;;;;1740289;28;20712;-81
2023/09/24 02:11:53;;;;;;;0.00;0.00;;;;;;;;;;1743775;28;20218;-81
2023/09/24 02:12:46;;;;;;;0.00;0.00;;;;;;;;;;1742877;28;20214;-81
2023/09/24 02:13:38;;;;;;;0.00;0.00;;;;;;;;;;1746209;28;20209;-81
2023/09/24 02:14:29;;;;;;;0.00;0.00;;;;;;;;;;1743041;28;20210;-81
2023/09/24 02:15:23;;;;;;;0.00;0.00;;;;;;;;;;1742195;28;20203;-81
2023/09/24 02:16:15;;;;;;;0.00;0.00;;;;;;;;;;1743905;28;20199;-81
2023/09/24 02:17:06;;;;;;;0.00;0.00;;;;;;;;;;1743678;28;20232;-80
2023/09/24 02:17:57;;;;;;;0.00;0.00;;;;;;;;;;1742591;28;20285;-80
2023/09/24 02:18:49;;;;;;;0.00;0.00;;;;;;;;;;1743326;28;20612;-81
2023/09/24 02:19:44;;;;;;;0.00;0.00;;;;;;;;;;1746859;28;20293;-81
2023/09/24 02:20:36;;;;;;;0.00;0.00;;;;;;;;;;1742238;28;20230;-81
2023/09/24 02:21:29;;;;;;;0.00;0.00;;;;;;;;;;1744656;28;20614;-80
2023/09/24 02:22:22;;;;;;;0.00;0.00;;;;;;;;;;1738117;28;20203;-81
2023/09/24 02:23:14;;;;;;;0.00;0.00;;;;;;;;;;1742552;28;20194;-82
2023/09/24 02:24:07;;;;;;;0.00;0.00;;;;;;;;;;1743267;28;20872;-82
2023/09/24 02:25:00;;;;;;;0.00;0.00;;;;;;;;;;1748447;28;20206;-82
2023/09/24 02:25:52;;;;;;;0.00;0.00;;;;;;;;;;1746796;28;20238;-82
2023/09/24 02:26:43;;;;;;;0.00;0.00;;;;;;;;;;1745114;28;20199;-82
2023/09/24 02:27:34;;;;;;;0.00;0.00;;;;;;;;;;1744398;28;20199;-82
2023/09/24 02:28:26;;;;;;;0.00;0.00;;;;;;;;;;1744500;28;20203;-82
2023/09/24 02:29:18;;;;;;;0.00;0.00;;;;;;;;;;1745690;28;20210;-82
2023/09/24 02:30:11;;;;;;;0.00;0.00;;;;;;;;;;1748313;28;20566;-83
2023/09/24 02:31:04;;;;;;;0.00;0.00;;;;;;;;;;1744757;28;20236;-82
2023/09/24 02:31:55;;;;;;;0.00;0.00;;;;;;;;;;1737678;28;20225;-82
2023/09/24 02:32:46;;;;;;;0.00;0.00;;;;;;;;;;1742142;28;20218;-82
2023/09/24 02:33:38;;;;;;;0.00;0.00;;;;;;;;;;1747104;28;20198;-82
2023/09/24 02:34:29;;;;;;;0.00;0.00;;;;;;;;;;1743359;28;20253;-82
2023/09/24 02:35:21;;;;;;;0.00;0.00;;;;;;;;;;1741661;28;20237;-81
2023/09/24 02:36:12;;;;;;;0.00;0.00;;;;;;;;;;1740771;28;20222;-81
2023/09/24 02:37:04;;;;;;;0.00;0.00;;;;;;;;;;1742387;28;20222;-82
2023/09/24 02:37:56;;;;;;;0.00;0.00;;;;;;;;;;1743396;28;20286;-82
2023/09/24 02:38:49;;;;;;;0.00;0.00;;;;;;;;;;1739078;28;20207;-82
2023/09/24 02:39:41;;;;;;;0.00;0.00;;;;;;;;;;1737627;28;20622;-82
2023/09/24 02:40:34;;;;;;;0.00;0.00;;;;;;;;;;1736550;28;20230;-83
2023/09/24 02:41:26;;;;;;;0.00;0.00;;;;;;;;;;1736118;28;20196;-83
2023/09/24 02:42:17;;;;;;;0.00;0.00;;;;;;;;;;1736313;28;20538;-82
2023/09/24 02:43:09;;;;;;;0.00;0.00;;;;;;;;;;1742131;28;20191;-82
2023/09/24 02:44:02;;;;;;;0.00;0.00;;;;;;;;;;1736792;28;20206;-82
2023/09/24 02:44:53;;;;;;;0.00;0.00;;;;;;;;;;1740723;28;20238;-81
2023/09/24 02:45:45;;;;;;;0.00;0.00;;;;;;;;;;1741912;28;20245;-82
2023/09/24 02:46:37;;;;;;;0.00;0.00;;;;;;;;;;1739028;28;20243;-81
2023/09/24 02:47:28;;;;;;;0.00;0.00;;;;;;;;;;1738535;28;20245;-82
2023/09/24 02:48:20;;;;;;;0.00;0.00;;;;;;;;;;1742649;28;20218;-82
2023/09/24 02:49:11;;;;;;;0.00;0.00;;;;;;;;;;1739405;28;20255;-82
2023/09/24 02:50:08;;;;;;;0.00;0.00;;;;;;;;;;1748119;28;20229;-82
2023/09/24 02:51:08;;;;;;;0.00;0.00;;;;;;;;;;1743395;28;20719;-82
2023/09/24 02:51:59;;;;;;;0.00;0.00;;;;;;;;;;1737432;28;20204;-82
2023/09/24 02:52:52;;;;;;;0.00;0.00;;;;;;;;;;1741168;28;20226;-82
2023/09/24 02:53:43;;;;;;;0.00;0.00;;;;;;;;;;1738976;28;20621;-82
2023/09/24 02:54:34;;;;;;;0.00;0.00;;;;;;;;;;1739874;28;20195;-82
2023/09/24 02:55:26;;;;;;;0.00;0.00;;;;;;;;;;1743807;28;20211;-81
2023/09/24 02:56:19;;;;;;;0.00;0.00;;;;;;;;;;1743723;28;20199;-81
2023/09/24 02:57:10;;;;;;;0.00;0.00;;;;;;;;;;1736673;28;20230;-81
2023/09/24 02:58:03;;;;;;;0.00;0.00;;;;;;;;;;1743556;28;20203;-82
2023/09/24 02:58:55;;;;;;;0.00;0.00;;;;;;;;;;1737996;28;20239;-82
2023/09/24 02:59:46;;;;;;;0.00;0.00;;;;;;;;;;1738320;28;20203;-81
2023/09/24 03:00:41;;;;;;;0.00;0.00;;;;;;;;;;1736583;28;20226;-82
2023/09/24 03:01:32;;;;;;;0.00;0.00;;;;;;;;;;1741725;28;20632;-82
2023/09/24 03:02:28;;;;;;;0.00;0.00;;;;;;;;;;1741011;28;20285;-81
2023/09/24 03:03:20;;;;;;;0.00;0.00;;;;;;;;;;1737504;28;20283;-82
2023/09/24 03:04:12;;;;;;;0.00;0.00;;;;;;;;;;1742128;28;20217;-82
2023/09/24 03:05:08;;;;;;;0.00;0.00;;;;;;;;;;1741182;28;20222;-82
2023/09/24 03:06:00;;;;;;;0.00;0.00;;;;;;;;;;1736768;28;20307;-82
2023/09/24 03:06:52;;;;;;;0.00;0.00;;;;;;;;;;1738157;28;20250;-82
2023/09/24 03:07:44;;;;;;;0.00;0.00;;;;;;;;;;1736816;28;20683;-82
2023/09/24 03:08:36;;;;;;;0.00;0.00;;;;;;;;;;1737557;28;20564;-81
2023/09/24 03:09:28;;;;;;;0.00;0.00;;;;;;;;;;1741535;28;20666;-81
2023/09/24 03:10:20;;;;;;;0.00;0.00;;;;;;;;;;1741568;28;20195;-83
2023/09/24 03:11:14;;;;;;;0.00;0.00;;;;;;;;;;1738859;28;20223;-82
2023/09/24 03:12:07;;;;;;;0.00;0.00;;;;;;;;;;1739915;28;20286;-82
2023/09/24 03:12:59;;;;;;;0.00;0.00;;;;;;;;;;1737450;28;20223;-82
2023/09/24 03:13:50;;;;;;;0.00;0.00;;;;;;;;;;1739321;28;20211;-80
2023/09/24 03:14:41;;;;;;;0.00;0.00;;;;;;;;;;1744831;28;20631;-80
2023/09/24 03:15:33;;;;;;;0.00;0.00;;;;;;;;;;1740588;28;20265;-80
2023/09/24 03:16:27;;;;;;;0.00;0.00;;;;;;;;;;1738709;28;20203;-79
2023/09/24 03:17:18;;;;;;;0.00;0.00;;;;;;;;;;1737383;28;20265;-80
2023/09/24 03:18:10;;;;;;;0.00;0.00;;;;;;;;;;1743155;28;20199;-80
2023/09/24 03:19:01;;;;;;;0.00;0.00;;;;;;;;;;1738839;28;20207;-80
2023/09/24 03:19:52;;;;;;;0.00;0.00;;;;;;;;;;1741957;28;20198;-80
2023/09/24 03:20:45;;;;;;;0.00;0.00;;;;;;;;;;1745470;28;20252;-80
2023/09/24 03:21:36;;;;;;;0.00;0.00;;;;;;;;;;1740974;28;20207;-80
2023/09/24 03:22:27;;;;;;;0.00;0.00;;;;;;;;;;1740146;28;20692;-80
2023/09/24 03:23:20;;;;;;;0.00;0.00;;;;;;;;;;1742439;28;20202;-80
2023/09/24 03:24:14;;;;;;;0.00;0.00;;;;;;;;;;1738586;28;20644;-80
2023/09/24 03:25:07;;;;;;;0.00;0.00;;;;;;;;;;1738465;28;20204;-80
2023/09/24 03:25:59;;;;;;;0.00;0.00;;;;;;;;;;1737447;28;20299;-81
2023/09/24 03:26:50;;;;;;;0.00;0.00;;;;;;;;;;1746312;28;20207;-81
2023/09/24 03:27:44;;;;;;;0.00;0.00;;;;;;;;;;1745172;28;20230;-80
2023/09/24 03:28:35;;;;;;;0.00;0.00;;;;;;;;;;1742343;28;20206;-80
2023/09/24 03:29:27;;;;;;;0.00;0.00;;;;;;;;;;1741770;28;20227;-80
2023/09/24 03:30:18;;;;;;;0.00;0.00;;;;;;;;;;1736782;28;20621;-79
2023/09/24 03:31:12;;;;;;;0.00;0.00;;;;;;;;;;1737694;28;20204;-78
2023/09/24 03:32:05;;;;;;;0.00;0.00;;;;;;;;;;1734056;28;20205;-78
2023/09/24 03:32:57;;;;;;;0.00;0.00;;;;;;;;;;1737167;28;20206;-79
2023/09/24 03:33:49;;;;;;;0.00;0.00;;;;;;;;;;1737644;28;20203;-79
2023/09/24 03:34:40;;;;;;;0.00;0.00;;;;;;;;;;1745675;28;20347;-79
2023/09/24 03:35:31;;;;;;;0.00;0.00;;;;;;;;;;1741602;28;20234;-80
2023/09/24 03:36:23;;;;;;;0.00;0.00;;;;;;;;;;1743915;28;20207;-81
2023/09/24 03:37:16;;;;;;;0.00;0.00;;;;;;;;;;1742739;28;20621;-81
2023/09/24 03:38:07;;;;;;;0.00;0.00;;;;;;;;;;1737464;28;20710;-81
2023/09/24 03:38:59;;;;;;;0.00;0.00;;;;;;;;;;1746030;28;20187;-80
2023/09/24 03:39:50;;;;;;;0.00;0.00;;;;;;;;;;1746708;28;20207;-80
2023/09/24 03:40:42;;;;;;;0.00;0.00;;;;;;;;;;1741881;28;20227;-80
2023/09/24 03:41:33;;;;;;;0.00;0.00;;;;;;;;;;1742175;28;20234;-80
2023/09/24 03:42:25;;;;;;;0.00;0.00;;;;;;;;;;1738495;28;20658;-79
2023/09/24 03:43:18;;;;;;;0.00;0.00;;;;;;;;;;1746268;28;20248;-80
2023/09/24 03:44:11;;;;;;;0.00;0.00;;;;;;;;;;1745196;28;20203;-80
2023/09/24 03:45:03;;;;;;;0.00;0.00;;;;;;;;;;1744619;28;20725;-80
2023/09/24 03:45:55;;;;;;;0.00;0.00;;;;;;;;;;1741235;28;20235;-80
2023/09/24 03:46:46;;;;;;;0.00;0.00;;;;;;;;;;1740088;28;20261;-80
2023/09/24 03:47:38;;;;;;;0.00;0.00;;;;;;;;;;1740671;28;20199;-80
2023/09/24 03:48:30;;;;;;;0.00;0.00;;;;;;;;;;1747692;28;20217;-80
2023/09/24 03:49:21;;;;;;;0.00;0.00;;;;;;;;;;1743328;28;20248;-80
2023/09/24 03:50:13;;;;;;;0.00;0.00;;;;;;;;;;1742432;28;20245;-79
2023/09/24 03:51:05;;;;;;;0.00;0.00;;;;;;;;;;1740533;28;20262;-80
2023/09/24 03:51:56;;;;;;;0.00;0.00;;;;;;;;;;1739042;28;20220;-79
2023/09/24 03:52:48;;;;;;;0.00;0.00;;;;;;;;;;1742253;28;20217;-80
2023/09/24 03:53:40;;;;;;;0.00;0.00;;;;;;;;;;1746333;28;20199;-80
2023/09/24 03:54:31;;;;;;;0.00;0.00;;;;;;;;;;1741940;28;20257;-80
2023/09/24 03:55:23;;;;;;;0.00;0.00;;;;;;;;;;1737860;28;20196;-80
2023/09/24 03:56:15;;;;;;;0.00;0.00;;;;;;;;;;1743811;28;20195;-80
2023/09/24 03:57:06;;;;;;;0.00;0.00;;;;;;;;;;1737455;28;20200;-81
2023/09/24 03:57:59;;;;;;;0.00;0.00;;;;;;;;;;1742661;28;20202;-81
2023/09/24 03:58:51;;;;;;;0.00;0.00;;;;;;;;;;1740148;28;20231;-81
2023/09/24 03:59:42;;;;;;;0.00;0.00;;;;;;;;;;1745591;28;20252;-81
2023/09/24 04:00:34;;;;;;;0.00;0.00;;;;;;;;;;1741534;28;20249;-81
2023/09/24 04:01:25;;;;;;;0.00;0.00;;;;;;;;;;1743817;28;20258;-81
2023/09/24 04:02:16;;;;;;;0.00;0.00;;;;;;;;;;1742372;28;20226;-81
2023/09/24 04:03:09;;;;;;;0.00;0.00;;;;;;;;;;1739353;28;20199;-81
2023/09/24 04:04:03;;;;;;;0.00;0.00;;;;;;;;;;1739156;28;20204;-81
2023/09/24 04:04:54;;;;;;;0.00;0.00;;;;;;;;;;1739456;28;20245;-81
2023/09/24 04:05:46;;;;;;;0.00;0.00;;;;;;;;;;1741869;28;20560;-82
2023/09/24 04:06:39;;;;;;;0.00;0.00;;;;;;;;;;1744361;28;20207;-82
2023/09/24 04:07:30;;;;;;;0.00;0.00;;;;;;;;;;1740784;28;20198;-82
2023/09/24 04:08:22;;;;;;;0.00;0.00;;;;;;;;;;1745853;28;20203;-82
2023/09/24 04:09:13;;;;;;;0.00;0.00;;;;;;;;;;1744210;28;20226;-81
2023/09/24 04:10:06;;;;;;;0.00;0.00;;;;;;;;;;1738919;28;20219;-81
2023/09/24 04:10:57;;;;;;;0.00;0.00;;;;;;;;;;1743801;28;20345;-81
2023/09/24 04:11:49;;;;;;;0.00;0.00;;;;;;;;;;1745011;28;20302;-81
2023/09/24 04:12:40;;;;;;;0.00;0.00;;;;;;;;;;1744450;28;20281;-82
2023/09/24 04:13:32;;;;;;;0.00;0.00;;;;;;;;;;1748367;28;20230;-81
2023/09/24 04:14:25;;;;;;;0.00;0.00;;;;;;;;;;1743372;28;20222;-82
2023/09/24 04:15:18;;;;;;;0.00;0.00;;;;;;;;;;1737108;28;20346;-80
2023/09/24 04:16:10;;;;;;;0.00;0.00;;;;;;;;;;1738446;28;20187;-81
2023/09/24 04:17:02;;;;;;;0.00;0.00;;;;;;;;;;1741984;28;20215;-81
2023/09/24 04:17:56;;;;;;;0.00;0.00;;;;;;;;;;1739412;28;20200;-81
2023/09/24 04:18:47;;;;;;;0.00;0.00;;;;;;;;;;1747653;28;20213;-80
2023/09/24 04:19:38;;;;;;;0.00;0.00;;;;;;;;;;1743516;28;20198;-80
2023/09/24 04:20:30;;;;;;;0.00;0.00;;;;;;;;;;1742867;28;20266;-80
2023/09/24 04:21:21;;;;;;;0.00;0.00;;;;;;;;;;1742897;28;20210;-80
2023/09/24 04:22:13;;;;;;;0.00;0.00;;;;;;;;;;1737402;28;20242;-81
2023/09/24 04:23:05;;;;;;;0.00;0.00;;;;;;;;;;1738298;28;20222;-81
2023/09/24 04:23:57;;;;;;;0.00;0.00;;;;;;;;;;1738001;28;20271;-80
2023/09/24 04:24:50;;;;;;;0.00;0.00;;;;;;;;;;1743417;28;20207;-80
2023/09/24 04:25:42;;;;;;;0.00;0.00;;;;;;;;;;1744671;28;20860;-80
2023/09/24 04:26:34;;;;;;;0.00;0.00;;;;;;;;;;1738307;28;20275;-80
2023/09/24 04:27:26;;;;;;;0.00;0.00;;;;;;;;;;1740093;28;20195;-80
2023/09/24 04:28:19;;;;;;;0.00;0.00;;;;;;;;;;1737333;28;20204;-80
2023/09/24 04:29:11;;;;;;;0.00;0.00;;;;;;;;;;1736559;28;20677;-81
2023/09/24 04:30:11;;;;;;;0.00;0.00;;;;;;;;;;1737897;28;20633;-80
2023/09/24 04:31:02;;;;;;;0.00;0.00;;;;;;;;;;1734691;28;20323;-80
2023/09/24 04:31:54;;;;;;;0.00;0.00;;;;;;;;;;1739106;28;20203;-80
2023/09/24 04:32:48;;;;;;;0.00;0.00;;;;;;;;;;1737291;28;20249;-80
2023/09/24 04:33:41;;;;;;;0.00;0.00;;;;;;;;;;1735917;28;20231;-80
2023/09/24 04:34:33;;;;;;;0.00;0.00;;;;;;;;;;1735724;28;20219;-80
2023/09/24 04:35:27;;;;;;;0.00;0.00;;;;;;;;;;1735136;28;20208;-80
2023/09/24 04:36:19;;;;;;;0.00;0.00;;;;;;;;;;1736122;28;20221;-80
2023/09/24 04:37:11;;;;;;;0.00;0.00;;;;;;;;;;1736707;28;20203;-80
2023/09/24 04:38:02;;;;;;;0.00;0.00;;;;;;;;;;1737994;28;20923;-80
2023/09/24 04:38:54;;;;;;;0.00;0.00;;;;;;;;;;1739236;28;20195;-80
2023/09/24 04:39:46;;;;;;;0.00;0.00;;;;;;;;;;1738910;28;20206;-80
2023/09/24 04:40:37;;;;;;;0.00;0.00;;;;;;;;;;1737237;28;20234;-80
2023/09/24 04:41:29;;;;;;;0.00;0.00;;;;;;;;;;1735333;28;20647;-80
2023/09/24 04:42:20;;;;;;;0.00;0.00;;;;;;;;;;1735163;28;20618;-81
2023/09/24 04:43:15;;;;;;;0.00;0.00;;;;;;;;;;1735190;28;20192;-80
2023/09/24 04:44:06;;;;;;;0.00;0.00;;;;;;;;;;1729625;28;20937;-80
2023/09/24 04:44:58;;;;;;;0.00;0.00;;;;;;;;;;1731841;28;20312;-80
2023/09/24 04:45:51;;;;;;;0.00;0.00;;;;;;;;;;1733368;28;20239;-79
2023/09/24 04:46:42;;;;;;;0.00;0.00;;;;;;;;;;1738454;28;20242;-80
2023/09/24 04:47:34;;;;;;;0.00;0.00;;;;;;;;;;1736624;28;20216;-80
2023/09/24 04:48:26;;;;;;;0.00;0.00;;;;;;;;;;1735950;28;20199;-80
2023/09/24 04:49:17;;;;;;;0.00;0.00;;;;;;;;;;1737308;28;20350;-80
2023/09/24 04:50:11;;;;;;;0.00;0.00;;;;;;;;;;1737934;28;20230;-80
2023/09/24 04:51:03;;;;;;;0.00;0.00;;;;;;;;;;1736749;28;20228;-80
2023/09/24 04:51:55;;;;;;;0.00;0.00;;;;;;;;;;1735603;28;20200;-80
2023/09/24 04:52:48;;;;;;;0.00;0.00;;;;;;;;;;1735412;28;20214;-80
2023/09/24 04:53:39;;;;;;;0.00;0.00;;;;;;;;;;1738374;28;20315;-80
2023/09/24 04:54:31;;;;;;;0.00;0.00;;;;;;;;;;1735204;28;20257;-80
2023/09/24 04:55:22;;;;;;;0.00;0.00;;;;;;;;;;1734131;28;20231;-80
2023/09/24 04:56:14;;;;;;;0.00;0.00;;;;;;;;;;1735126;28;20200;-80
2023/09/24 04:57:07;;;;;;;0.00;0.00;;;;;;;;;;1736904;28;20656;-80
2023/09/24 04:57:59;;;;;;;0.00;0.00;;;;;;;;;;1734837;28;20192;-80
2023/09/24 04:58:51;;;;;;;0.00;0.00;;;;;;;;;;1735108;28;20335;-79
2023/09/24 04:59:43;;;;;;;0.00;0.00;;;;;;;;;;1738802;28;20274;-80
2023/09/24 05:00:34;;;;;;;0.00;0.00;;;;;;;;;;1734313;28;20264;-80
2023/09/24 05:01:27;;;;;;;0.00;0.00;;;;;;;;;;1738166;28;20263;-80
2023/09/24 05:02:20;;;;;;;0.00;0.00;;;;;;;;;;1736485;28;20219;-79
2023/09/24 05:03:11;;;;;;;0.00;0.00;;;;;;;;;;1738856;28;20223;-80
2023/09/24 05:04:04;;;;;;;0.00;0.00;;;;;;;;;;1737357;28;20882;-80
2023/09/24 05:04:55;;;;;;;0.00;0.00;;;;;;;;;;1735014;28;20254;-80
2023/09/24 05:05:47;;;;;;;0.00;0.00;;;;;;;;;;1731947;28;20239;-80
2023/09/24 05:06:38;;;;;;;0.00;0.00;;;;;;;;;;1746067;28;20258;-80
2023/09/24 05:07:30;;;;;;;0.00;0.00;;;;;;;;;;1738385;28;20207;-80
2023/09/24 05:08:21;;;;;;;0.00;0.00;;;;;;;;;;1738585;28;20204;-80
2023/09/24 05:09:12;;;;;;;0.00;0.00;;;;;;;;;;1740020;28;20218;-80
2023/09/24 05:10:04;;;;;;;0.00;0.00;;;;;;;;;;1740126;28;20195;-80
2023/09/24 05:10:55;;;;;;;0.00;0.00;;;;;;;;;;1734316;28;20231;-80
2023/09/24 05:11:47;;;;;;;0.00;0.00;;;;;;;;;;1739618;28;20203;-80